Sunday, May 01, 2016
04:19 UTC
  |  Log In   |  Register Free
Airport Search:

Visalia Municipal Airport
(KVIS)

Visalia Municipal Airport Diagram
No Airport Diagram Available

FAA data valid effective Mar 31 2016 - May 26 2016 (unless otherwise noted).

 
 
 
 
 
 
 
 
 
 
 
 
 
 
Current Aviation Weather for KVIS

Weather Summary


The most recent METAR observation for VIS was updated at: 12:56 UTC
METAR for KVIS is not available. Closest METAR is for KHJO
KVIS  (most recent observation was updatred at 10:35 UTC)
010356Z AUTO 00000KT 10SM CLR 18/09 A2981 RMK AO2 SLP102 T01780094

KHJO  (11.4 nm NE)   (most recent observation was updated at 10:35 UTC)
010353Z AUTO 00000KT 10SM CLR 18/10 A2980 RMK AO2 SLP092 T01780100

KPTV  (23.6 nm NW)   (most recent observation was updated at 10:35 UTC)
010356Z AUTO 00000KT 10SM CLR 19/08 A2982 RMK AO2 SLP108 T01940078

TAF for KVIS is not available.
KVIS
302320Z 0100/0124 VRB03KT P6SM SKC

KNLC  (27.1 nm SE)   (most recent observation was updatred at UTC)
3007/0107 32012KT 9999 FEW250 520009 520909 531809 532709 QNH2976INS FM301000 34017G24KT 9999 FEW060 SCT230 520009 520909 531809 532709 QNH2970INS TEMPO 3012/3018 33018G27KT FM302000 35010G15KT 9999 FEW250 520009 520909 531809 532709 QNH2968INS AUTOMATED SENSOR METWATCH 3007 TIL 0115 T11/3014Z T27/3023Z FS30036


KFAT  (31.6 nm SE)   (most recent observation was updatred at 30:23 UTC)
302320Z 0100/0124 32009KT P6SM SKC FM010400 VRB03KT P6SM SKC
GlobalAir.com is loading additional information.
 Current Weather at VIS
71.0 F° (21.7 C°)

North winds at 5.8 mph
Pressure:
29.79 in
Humidity:
41%
Wind:
North at 5.8 mph
Dew Point:
46.0 F° (7.8 C°)
Visibility:
10.00 mi
VIS NOAA Radar




Find All Airport Services Find A Hotel Find A Rental Car Find A Golf Course Find A Restaurant $100 Hamburger



Airport Weather Forecast for KVIS

Translated METAR for KVIS (0356 UTC)
METAR:
KVIS 010356Z AUTO 00000KT 10SM CLR 18/09 A2981 RMK AO2 SLP102 T01780094
Conditions at:
KVIS (Visalia Muni, CA) observed 0356 UTC 01 May 2016
Temperature:
18°C (64.4°F)
Dewpoint:
9°C (48.2°F) [RH = 55.7]
Pressure:
29.81 inches Hg (1009.5 mb)
pressure at sea level is 102 in Hg
Winds:
from the N (000 degrees) at 0 mph (0 knots: 0 m/s)
Visibility:
10 mile(s)
Ceiling:
at least 12,000 feet AGL
Clouds:
Clear below 12,000 feet AGL
Remarks:
site is un-manned
site is automated and HAS a precipitation sensor

Translated TAF for KVIS (Visalia Muni, CA) (2320 UTC)
TAF text:
KVIS 302320Z 0100/0124 VRB03KT P6SM SKC
Forecast period:
Sunday May 01 2016 00:00 UTC - Sunday May 01 2016 24:00 UTC
Forecast type:
FROM: standard forecast or significant change
Winds:
variable wind direction at 3.5 mph (3 knots: 1.5 m/s)
Visibility:
6 or more mile(s) (9.7+ km)
Ceiling:
at least 12,000 feet AGL
Clouds:
Clear Skies
Weather:
no significant weather observed at this time
FBO's on the Field
FBO Company Facility Photos Services Transportation Aviation Fuel Prices: Prices include tax
Catering Weather Repair Courtesy Rental Type 100LL JetA JetA+ MOGAS 8087
 
Add another FBO Facility Photos Catering Weather Repair Courtesy Rental Type 100LL JetA JetA+ MOGAS 8087
Services Transportation Aviation Fuel Prices: Prices include tax
There are no FBO's currently reporting fuel at VIS. List your FBO now


model-print
model-print
model-print
model-print